Time;durP1;ratioP1;P1;durP2;ratioP2;P2;SDS_P1;SDS_P2;PMS_P1;PMS_P2;Temp;Humidity;BMP_temperature;BMP_pressure;BME280_temperature;BME280_humidity;BME280_pressure;Samples;Min_cycle;Max_cycle;Signal;HPM_P1;HPM_P2
2023/10/06 00:01:34;;;;;;;6.72;3.30;;;;;;;;;;4844228;29;20211;-44
2023/10/06 00:04:06;;;;;;;8.02;3.63;;;;;;;;;;4844022;29;20244;-43
2023/10/06 00:06:37;;;;;;;10.23;3.63;;;;;;;;;;4844071;29;20211;-44
2023/10/06 00:09:06;;;;;;;5.43;2.95;;;;;;;;;;4844059;29;20215;-44
2023/10/06 00:11:34;;;;;;;6.82;3.10;;;;;;;;;;4843842;29;20216;-45
2023/10/06 00:14:01;;;;;;;9.13;3.40;;;;;;;;;;4843900;29;20256;-45
2023/10/06 00:16:38;;;;;;;7.93;3.30;;;;;;;;;;4843732;29;20218;-43
2023/10/06 00:22:01;;;;;;;5.50;3.05;;;;;;;;;;4843732;29;20215;-44
2023/10/06 00:24:29;;;;;;;4.85;3.13;;;;;;;;;;4843911;29;20211;-43
2023/10/06 00:26:56;;;;;;;14.55;3.60;;;;;;;;;;4843613;29;20661;-43
2023/10/06 00:29:23;;;;;;;8.48;3.38;;;;;;;;;;4843778;29;20215;-44
2023/10/06 00:31:50;;;;;;;4.20;2.58;;;;;;;;;;4843490;29;20756;-43
2023/10/06 00:34:20;;;;;;;4.72;2.50;;;;;;;;;;4843326;29;20243;-43
2023/10/06 00:36:55;;;;;;;10.15;2.90;;;;;;;;;;4843338;29;20667;-44
2023/10/06 00:39:24;;;;;;;9.50;2.95;;;;;;;;;;4857869;29;20188;-45
2023/10/06 00:41:56;;;;;;;6.72;2.90;;;;;;;;;;4843633;29;20207;-44
2023/10/06 00:44:24;;;;;;;6.57;3.08;;;;;;;;;;4857485;29;20620;-43
2023/10/06 00:46:51;;;;;;;9.85;3.03;;;;;;;;;;4843147;29;20207;-44
2023/10/06 00:49:19;;;;;;;6.00;2.83;;;;;;;;;;4843503;29;20223;-43
2023/10/06 00:51:47;;;;;;;5.68;2.67;;;;;;;;;;4843158;29;20212;-43
2023/10/06 00:54:15;;;;;;;3.88;2.47;;;;;;;;;;4841851;29;20240;-45
2023/10/06 00:56:42;;;;;;;5.45;2.90;;;;;;;;;;4842029;29;20271;-44
2023/10/06 00:59:12;;;;;;;5.80;3.05;;;;;;;;;;4843265;29;20244;-44
2023/10/06 01:01:40;;;;;;;7.18;3.00;;;;;;;;;;4843606;29;20208;-43
2023/10/06 01:06:36;;;;;;;7.80;2.80;;;;;;;;;;4857238;29;20207;-44
2023/10/06 01:09:14;;;;;;;6.35;3.20;;;;;;;;;;4857356;29;20223;-45
2023/10/06 01:11:43;;;;;;;7.68;3.35;;;;;;;;;;4857142;29;20219;-44
2023/10/06 01:14:11;;;;;;;8.00;3.17;;;;;;;;;;4841718;29;20211;-46
2023/10/06 01:16:38;;;;;;;8.00;2.95;;;;;;;;;;4840930;29;20218;-45
2023/10/06 01:19:17;;;;;;;6.70;3.30;;;;;;;;;;4855545;29;20207;-45
2023/10/06 01:21:46;;;;;;;6.68;3.53;;;;;;;;;;4840922;29;20729;-44
2023/10/06 01:24:27;;;;;;;7.95;3.40;;;;;;;;;;4855192;29;20264;-44
2023/10/06 01:27:00;;;;;;;4.63;2.95;;;;;;;;;;4841145;29;20241;-43
2023/10/06 01:29:30;;;;;;;8.43;3.75;;;;;;;;;;4840873;29;20657;-43
2023/10/06 01:32:03;;;;;;;6.80;3.88;;;;;;;;;;4855155;29;20282;-43
2023/10/06 01:34:38;;;;;;;7.03;3.50;;;;;;;;;;4840818;29;20220;-45
2023/10/06 01:37:07;;;;;;;6.72;3.50;;;;;;;;;;4842656;29;20566;-46
2023/10/06 01:39:36;;;;;;;7.97;3.35;;;;;;;;;;4842882;29;20215;-44
2023/10/06 01:42:07;;;;;;;6.28;4.03;;;;;;;;;;4842854;29;20218;-43
2023/10/06 01:44:34;;;;;;;8.13;3.80;;;;;;;;;;4842743;29;20219;-43
2023/10/06 01:47:05;;;;;;;6.90;3.40;;;;;;;;;;4856655;29;20223;-43
2023/10/06 01:49:36;;;;;;;8.05;3.58;;;;;;;;;;4856717;29;20223;-45
2023/10/06 01:52:04;;;;;;;8.57;3.97;;;;;;;;;;4843095;29;20207;-44
2023/10/06 01:54:35;;;;;;;7.45;3.83;;;;;;;;;;4842241;29;20724;-44
2023/10/06 01:57:11;;;;;;;5.55;3.67;;;;;;;;;;4842477;29;20219;-43
2023/10/06 01:59:39;;;;;;;8.02;4.03;;;;;;;;;;4856710;29;20222;-44
2023/10/06 02:02:09;;;;;;;6.90;4.05;;;;;;;;;;4842818;29;20211;-43
2023/10/06 02:04:40;;;;;;;6.35;3.70;;;;;;;;;;4842753;29;20215;-43
2023/10/06 02:07:09;;;;;;;9.00;4.07;;;;;;;;;;4856783;29;20562;-44
2023/10/06 02:09:37;;;;;;;9.48;3.78;;;;;;;;;;4856689;29;20215;-44
2023/10/06 02:12:05;;;;;;;12.98;4.63;;;;;;;;;;4842607;29;20550;-47
2023/10/06 02:14:32;;;;;;;8.55;4.82;;;;;;;;;;4841161;29;20683;-43
2023/10/06 02:17:05;;;;;;;7.07;4.22;;;;;;;;;;4842343;29;20748;-43
2023/10/06 02:19:32;;;;;;;5.80;3.97;;;;;;;;;;4856625;29;20548;-44
2023/10/06 02:22:00;;;;;;;11.73;4.50;;;;;;;;;;4842292;29;20299;-44
2023/10/06 02:24:27;;;;;;;7.63;4.50;;;;;;;;;;4856451;29;20538;-43
2023/10/06 02:27:00;;;;;;;9.45;4.22;;;;;;;;;;4844212;29;20302;-44
2023/10/06 02:29:29;;;;;;;7.70;3.50;;;;;;;;;;4860109;29;20219;-44
2023/10/06 02:32:06;;;;;;;4.93;3.65;;;;;;;;;;4860034;29;20231;-43
2023/10/06 02:34:36;;;;;;;8.15;3.92;;;;;;;;;;4845764;29;20247;-44
2023/10/06 02:37:07;;;;;;;5.90;3.85;;;;;;;;;;4845521;29;20215;-44
2023/10/06 02:39:37;;;;;;;8.55;3.85;;;;;;;;;;4845735;29;20275;-44
2023/10/06 02:42:09;;;;;;;5.22;3.63;;;;;;;;;;4845662;29;20207;-43
2023/10/06 02:44:41;;;;;;;6.35;3.65;;;;;;;;;;4845699;29;20211;-43
2023/10/06 02:47:13;;;;;;;11.20;4.35;;;;;;;;;;4859545;29;20301;-45
2023/10/06 02:49:47;;;;;;;9.23;3.53;;;;;;;;;;4845092;29;20223;-44
2023/10/06 02:52:22;;;;;;;6.22;3.50;;;;;;;;;;4845652;29;20204;-43
2023/10/06 02:55:05;;;;;;;9.35;3.55;;;;;;;;;;4859451;29;20276;-45
2023/10/06 02:57:36;;;;;;;7.55;3.28;;;;;;;;;;4845325;29;20207;-44
2023/10/06 03:03:11;;;;;;;7.47;3.67;;;;;;;;;;4879937;29;20210;-44
2023/10/06 03:05:40;;;;;;;10.93;3.40;;;;;;;;;;4864753;29;20220;-43
2023/10/06 03:08:10;;;;;;;5.88;3.55;;;;;;;;;;4880040;29;20299;-43
2023/10/06 03:10:45;;;;;;;6.75;3.47;;;;;;;;;;4879903;29;20269;-43
2023/10/06 03:13:16;;;;;;;6.40;3.83;;;;;;;;;;4880063;29;20220;-43
2023/10/06 03:15:47;;;;;;;7.70;3.22;;;;;;;;;;4864529;29;20245;-43
2023/10/06 03:18:16;;;;;;;7.97;3.35;;;;;;;;;;4879957;29;20618;-44
2023/10/06 03:20:49;;;;;;;5.97;3.20;;;;;;;;;;4880049;29;20210;-45
2023/10/06 03:23:29;;;;;;;9.63;3.80;;;;;;;;;;4864458;29;20323;-44
2023/10/06 03:25:56;;;;;;;6.53;3.30;;;;;;;;;;4864472;29;20266;-44
2023/10/06 03:28:32;;;;;;;6.30;3.20;;;;;;;;;;4879406;29;20589;-44
2023/10/06 03:33:46;;;;;;;7.25;3.22;;;;;;;;;;4879472;29;20210;-43
2023/10/06 03:36:17;;;;;;;5.38;2.85;;;;;;;;;;4879336;29;20237;-45
2023/10/06 03:38:52;;;;;;;7.28;3.30;;;;;;;;;;4851736;29;20204;-44
2023/10/06 03:41:24;;;;;;;5.20;3.08;;;;;;;;;;4858795;29;20219;-44
2023/10/06 03:43:53;;;;;;;7.47;2.72;;;;;;;;;;4844496;29;20620;-44
2023/10/06 03:46:23;;;;;;;4.55;2.90;;;;;;;;;;4844572;29;20222;-44
2023/10/06 03:48:52;;;;;;;5.88;2.75;;;;;;;;;;4844455;29;20215;-44
2023/10/06 03:51:20;;;;;;;5.30;2.70;;;;;;;;;;4842664;29;20212;-45
2023/10/06 03:53:51;;;;;;;3.83;2.58;;;;;;;;;;4843915;29;20246;-46
2023/10/06 03:56:18;;;;;;;6.28;3.00;;;;;;;;;;4843881;29;20226;-45
2023/10/06 03:58:46;;;;;;;7.15;2.97;;;;;;;;;;4843709;29;20256;-46
2023/10/06 04:01:19;;;;;;;6.47;3.28;;;;;;;;;;4835796;29;20240;-45
2023/10/06 04:03:47;;;;;;;5.25;2.78;;;;;;;;;;4842318;29;20314;-43
2023/10/06 04:06:15;;;;;;;8.95;3.10;;;;;;;;;;4853357;29;20242;-44
2023/10/06 04:08:46;;;;;;;6.32;2.95;;;;;;;;;;4855232;29;20641;-44
2023/10/06 04:11:14;;;;;;;4.90;2.78;;;;;;;;;;4856810;29;20246;-43
2023/10/06 04:13:42;;;;;;;9.38;2.72;;;;;;;;;;4861118;29;20227;-43
2023/10/06 04:16:13;;;;;;;6.82;2.80;;;;;;;;;;4843091;29;20334;-45
2023/10/06 04:18:47;;;;;;;5.35;3.22;;;;;;;;;;4842721;29;20635;-43
2023/10/06 04:21:16;;;;;;;5.03;2.60;;;;;;;;;;4841511;29;20235;-44
2023/10/06 04:23:43;;;;;;;4.72;2.70;;;;;;;;;;4842602;29;22418;-44
2023/10/06 04:26:11;;;;;;;8.32;2.35;;;;;;;;;;4841589;29;20228;-46
2023/10/06 04:28:38;;;;;;;8.70;2.80;;;;;;;;;;4842782;29;20235;-44
2023/10/06 04:31:05;;;;;;;5.38;2.80;;;;;;;;;;4834182;29;20227;-45
2023/10/06 04:33:33;;;;;;;7.70;3.00;;;;;;;;;;4839365;29;20227;-46
2023/10/06 04:36:11;;;;;;;5.25;2.90;;;;;;;;;;4842451;29;20333;-44
2023/10/06 04:38:39;;;;;;;5.03;2.65;;;;;;;;;;4842747;29;20231;-43
2023/10/06 04:41:08;;;;;;;6.10;2.63;;;;;;;;;;4858433;29;20236;-44
2023/10/06 04:43:37;;;;;;;10.45;3.17;;;;;;;;;;4860634;29;20260;-44
2023/10/06 04:46:05;;;;;;;9.70;3.20;;;;;;;;;;4844259;29;20670;-43
2023/10/06 04:48:35;;;;;;;7.75;2.95;;;;;;;;;;4842230;29;20242;-43
2023/10/06 04:51:04;;;;;;;9.15;3.20;;;;;;;;;;4841288;29;20711;-44
2023/10/06 04:53:40;;;;;;;8.13;3.50;;;;;;;;;;4842107;29;20307;-45
2023/10/06 04:56:08;;;;;;;5.30;3.17;;;;;;;;;;4842201;29;20247;-44
2023/10/06 04:58:38;;;;;;;10.93;3.47;;;;;;;;;;4842392;29;20658;-43
2023/10/06 05:01:07;;;;;;;8.38;3.90;;;;;;;;;;4855866;29;20235;-43
2023/10/06 05:03:43;;;;;;;8.05;4.00;;;;;;;;;;4841786;29;20227;-45
2023/10/06 05:06:21;;;;;;;6.30;3.58;;;;;;;;;;4841696;29;20242;-43
2023/10/06 05:08:48;;;;;;;7.55;3.83;;;;;;;;;;4840517;29;20764;-44
2023/10/06 05:11:17;;;;;;;6.32;4.10;;;;;;;;;;4842137;29;20318;-44
2023/10/06 05:13:55;;;;;;;7.93;4.15;;;;;;;;;;4842019;29;20237;-44
2023/10/06 05:16:23;;;;;;;8.65;3.80;;;;;;;;;;4849255;29;20246;-44
2023/10/06 05:18:51;;;;;;;9.80;3.97;;;;;;;;;;4860286;29;20231;-43
2023/10/06 05:21:20;;;;;;;7.10;3.92;;;;;;;;;;4860564;29;20241;-43
2023/10/06 05:23:47;;;;;;;11.32;4.55;;;;;;;;;;4860281;29;20227;-45
2023/10/06 05:26:15;;;;;;;5.18;3.20;;;;;;;;;;4861012;29;20301;-44
2023/10/06 05:28:43;;;;;;;6.45;3.85;;;;;;;;;;4860128;29;20664;-45
2023/10/06 05:31:12;;;;;;;6.00;3.35;;;;;;;;;;4860945;29;20243;-44
2023/10/06 05:33:42;;;;;;;7.82;3.65;;;;;;;;;;4861215;29;20207;-44
2023/10/06 05:36:10;;;;;;;5.07;3.15;;;;;;;;;;4861061;29;20699;-43
2023/10/06 05:38:38;;;;;;;6.15;3.88;;;;;;;;;;4861053;29;20724;-44
2023/10/06 05:41:11;;;;;;;7.20;3.75;;;;;;;;;;4890012;29;20210;-43
2023/10/06 05:43:39;;;;;;;9.70;4.07;;;;;;;;;;4860949;29;20293;-43
2023/10/06 05:46:06;;;;;;;6.63;4.15;;;;;;;;;;4861183;29;20274;-44
2023/10/06 05:48:34;;;;;;;7.38;4.45;;;;;;;;;;4861127;29;20215;-44
2023/10/06 05:51:14;;;;;;;6.45;4.18;;;;;;;;;;4860965;29;20222;-44
2023/10/06 05:53:43;;;;;;;8.55;4.13;;;;;;;;;;4861326;29;20242;-44
2023/10/06 05:56:11;;;;;;;12.60;4.93;;;;;;;;;;4861059;29;20246;-43
2023/10/06 05:58:40;;;;;;;7.78;4.88;;;;;;;;;;4860886;29;20660;-43
2023/10/06 06:01:14;;;;;;;9.43;4.28;;;;;;;;;;4861837;29;20202;-43
2023/10/06 06:03:49;;;;;;;7.18;4.20;;;;;;;;;;4864660;29;20238;-43
2023/10/06 06:06:22;;;;;;;6.13;3.85;;;;;;;;;;4864783;29;20210;-43
2023/10/06 06:08:51;;;;;;;6.32;4.18;;;;;;;;;;4864632;29;20216;-44
2023/10/06 06:11:19;;;;;;;10.48;4.70;;;;;;;;;;4864789;29;20210;-44
2023/10/06 06:13:47;;;;;;;9.10;4.78;;;;;;;;;;4864217;29;20266;-43
2023/10/06 06:16:33;;;;;;;10.20;4.28;;;;;;;;;;4864597;29;20234;-43
2023/10/06 06:19:01;;;;;;;9.55;4.15;;;;;;;;;;4864426;29;20213;-44
2023/10/06 06:21:28;;;;;;;10.85;4.78;;;;;;;;;;4864197;29;20210;-44
2023/10/06 06:23:57;;;;;;;8.15;4.25;;;;;;;;;;4864228;29;20266;-43
2023/10/06 06:26:25;;;;;;;6.95;4.82;;;;;;;;;;4864135;29;20262;-44
2023/10/06 06:28:52;;;;;;;7.93;5.00;;;;;;;;;;4864263;29;20214;-43
2023/10/06 06:31:21;;;;;;;10.38;4.80;;;;;;;;;;4864020;29;20211;-44
2023/10/06 06:33:48;;;;;;;7.22;4.63;;;;;;;;;;4863992;29;20739;-44
2023/10/06 06:36:18;;;;;;;7.57;3.83;;;;;;;;;;4863966;29;20242;-45
2023/10/06 06:38:46;;;;;;;7.13;3.60;;;;;;;;;;4864241;29;20215;-44
2023/10/06 06:41:13;;;;;;;6.13;3.17;;;;;;;;;;4864295;29;20206;-44
2023/10/06 06:43:45;;;;;;;6.80;2.92;;;;;;;;;;4863982;29;20202;-44
2023/10/06 06:46:16;;;;;;;5.40;3.20;;;;;;;;;;4864078;29;20214;-44
2023/10/06 06:48:44;;;;;;;4.97;3.00;;;;;;;;;;4864069;29;20260;-44
2023/10/06 06:51:12;;;;;;;5.70;3.60;;;;;;;;;;4862576;29;20221;-43
2023/10/06 06:53:42;;;;;;;6.95;3.60;;;;;;;;;;4863609;29;20246;-43
2023/10/06 06:56:12;;;;;;;4.03;2.78;;;;;;;;;;4863804;29;20234;-45
2023/10/06 06:58:40;;;;;;;5.78;3.08;;;;;;;;;;4863782;29;20559;-44
2023/10/06 07:01:14;;;;;;;5.55;3.20;;;;;;;;;;4863723;29;20215;-44
2023/10/06 07:03:42;;;;;;;5.22;3.00;;;;;;;;;;4863772;29;20288;-45
2023/10/06 07:06:16;;;;;;;7.03;3.17;;;;;;;;;;4863410;29;20210;-44
2023/10/06 07:08:45;;;;;;;6.40;2.75;;;;;;;;;;4863752;29;20212;-43
2023/10/06 07:11:13;;;;;;;6.15;2.85;;;;;;;;;;4863752;29;20211;-44
2023/10/06 07:13:42;;;;;;;8.15;2.80;;;;;;;;;;4862329;29;20617;-43
2023/10/06 07:16:09;;;;;;;8.35;3.20;;;;;;;;;;4863248;29;20234;-43
2023/10/06 07:18:37;;;;;;;7.93;3.00;;;;;;;;;;4863755;29;20294;-45
2023/10/06 07:21:09;;;;;;;8.10;3.55;;;;;;;;;;4863629;29;20211;-45
2023/10/06 07:23:37;;;;;;;5.13;3.30;;;;;;;;;;4863205;29;20211;-43
2023/10/06 07:26:11;;;;;;;7.53;3.53;;;;;;;;;;4863213;29;20211;-43
2023/10/06 07:28:42;;;;;;;8.30;3.40;;;;;;;;;;4863248;29;20207;-44
2023/10/06 07:31:12;;;;;;;8.95;3.78;;;;;;;;;;4862974;29;20221;-43
2023/10/06 07:33:43;;;;;;;10.25;3.53;;;;;;;;;;4863279;29;20210;-44
2023/10/06 07:36:13;;;;;;;6.32;3.40;;;;;;;;;;4862920;29;20234;-43
2023/10/06 07:38:43;;;;;;;8.45;3.17;;;;;;;;;;4862894;29;20209;-44
2023/10/06 07:41:24;;;;;;;4.68;3.17;;;;;;;;;;4862976;29;20665;-44
2023/10/06 07:43:52;;;;;;;4.68;2.42;;;;;;;;;;4862855;29;20568;-43
2023/10/06 07:46:20;;;;;;;9.52;3.15;;;;;;;;;;4862842;29;20267;-43
2023/10/06 07:48:47;;;;;;;5.07;3.15;;;;;;;;;;4862961;29;20207;-44
2023/10/06 07:51:16;;;;;;;8.13;4.32;;;;;;;;;;4862726;29;20211;-44
2023/10/06 07:53:43;;;;;;;8.35;3.50;;;;;;;;;;4862558;29;20235;-44
2023/10/06 07:56:11;;;;;;;10.73;3.50;;;;;;;;;;4862492;29;20207;-44
2023/10/06 07:58:41;;;;;;;5.55;2.95;;;;;;;;;;4850084;29;20207;-44
2023/10/06 08:01:09;;;;;;;6.68;3.55;;;;;;;;;;4844240;29;20221;-43
2023/10/06 08:03:41;;;;;;;8.07;3.78;;;;;;;;;;4844081;29;20207;-43
2023/10/06 08:06:10;;;;;;;7.10;3.47;;;;;;;;;;4844106;29;20222;-44
2023/10/06 08:08:38;;;;;;;7.20;3.08;;;;;;;;;;4844171;29;20212;-43
2023/10/06 08:11:06;;;;;;;8.50;2.80;;;;;;;;;;4843854;29;20684;-45
2023/10/06 08:13:34;;;;;;;7.82;3.08;;;;;;;;;;4843994;29;20260;-44
2023/10/06 08:16:02;;;;;;;5.97;3.28;;;;;;;;;;4843603;29;20244;-43
2023/10/06 08:18:30;;;;;;;8.73;4.13;;;;;;;;;;4843879;29;20212;-43
2023/10/06 08:21:00;;;;;;;5.05;3.53;;;;;;;;;;4842529;29;20239;-43
2023/10/06 08:23:35;;;;;;;4.38;2.45;;;;;;;;;;4843906;29;20241;-43
2023/10/06 08:26:08;;;;;;;7.95;2.38;;;;;;;;;;4844109;29;20207;-44
2023/10/06 08:28:36;;;;;;;7.45;2.50;;;;;;;;;;4843644;29;20294;-44
2023/10/06 08:31:03;;;;;;;6.78;2.80;;;;;;;;;;4843372;29;20685;-44
2023/10/06 08:33:31;;;;;;;6.10;2.17;;;;;;;;;;4843429;29;20238;-44
2023/10/06 08:36:00;;;;;;;4.35;2.03;;;;;;;;;;4843665;29;20204;-43
2023/10/06 08:38:29;;;;;;;5.40;2.35;;;;;;;;;;4843523;29;20322;-43
2023/10/06 08:41:01;;;;;;;5.22;2.05;;;;;;;;;;4843430;29;20274;-47
2023/10/06 08:43:28;;;;;;;11.43;2.72;;;;;;;;;;4843457;29;20211;-43
2023/10/06 08:45:59;;;;;;;4.97;2.28;;;;;;;;;;4843411;29;20216;-43
2023/10/06 08:48:31;;;;;;;8.13;2.10;;;;;;;;;;4843322;29;20657;-43
2023/10/06 08:51:03;;;;;;;6.28;1.90;;;;;;;;;;4843449;29;20207;-44
2023/10/06 08:53:31;;;;;;;2.67;1.60;;;;;;;;;;4843296;29;20242;-44
2023/10/06 08:55:58;;;;;;;4.18;1.90;;;;;;;;;;4843219;29;20581;-44
2023/10/06 08:58:26;;;;;;;3.88;1.67;;;;;;;;;;4843089;29;20243;-44
2023/10/06 09:00:55;;;;;;;2.97;1.67;;;;;;;;;;4843070;29;20219;-45
2023/10/06 09:03:23;;;;;;;3.35;1.60;;;;;;;;;;4843169;29;20272;-44
2023/10/06 09:05:54;;;;;;;4.47;1.88;;;;;;;;;;4842986;29;20592;-46
2023/10/06 09:08:22;;;;;;;4.28;1.45;;;;;;;;;;4843209;29;20314;-45
2023/10/06 09:10:51;;;;;;;2.35;1.42;;;;;;;;;;4843122;29;20222;-43
2023/10/06 09:13:20;;;;;;;6.38;1.75;;;;;;;;;;4843180;29;20215;-44
2023/10/06 09:16:11;;;;;;;3.83;1.70;;;;;;;;;;4843114;29;20271;-44
2023/10/06 09:18:39;;;;;;;4.15;2.10;;;;;;;;;;4842632;29;20600;-44
2023/10/06 09:21:19;;;;;;;3.97;1.63;;;;;;;;;;4856812;29;20211;-44
2023/10/06 09:23:49;;;;;;;3.35;1.58;;;;;;;;;;4843164;29;20215;-44
2023/10/06 09:26:29;;;;;;;2.72;1.70;;;;;;;;;;4843220;29;20223;-45
2023/10/06 09:29:01;;;;;;;4.13;1.50;;;;;;;;;;4842718;29;20207;-46
2023/10/06 09:31:44;;;;;;;3.17;1.50;;;;;;;;;;4843372;29;20672;-43
2023/10/06 09:34:12;;;;;;;3.25;1.42;;;;;;;;;;4842858;29;20208;-43
2023/10/06 09:36:42;;;;;;;5.82;1.65;;;;;;;;;;4841186;29;20231;-44
2023/10/06 09:39:16;;;;;;;3.70;1.80;;;;;;;;;;4856749;29;20239;-44
2023/10/06 09:41:44;;;;;;;3.53;1.88;;;;;;;;;;4842913;29;20308;-44
2023/10/06 09:44:11;;;;;;;2.40;1.52;;;;;;;;;;4842558;29;20214;-43
2023/10/06 09:46:43;;;;;;;2.63;1.75;;;;;;;;;;4856466;29;20204;-46
2023/10/06 09:49:15;;;;;;;3.08;1.73;;;;;;;;;;4842802;29;20212;-43
2023/10/06 09:52:03;;;;;;;4.43;1.90;;;;;;;;;;4842806;29;20216;-45
2023/10/06 09:54:31;;;;;;;4.28;1.70;;;;;;;;;;4842684;29;20240;-45
2023/10/06 09:56:59;;;;;;;2.38;1.20;;;;;;;;;;4842641;29;20231;-44
2023/10/06 09:59:27;;;;;;;6.25;1.50;;;;;;;;;;4842653;29;20218;-45
2023/10/06 10:01:56;;;;;;;7.32;1.70;;;;;;;;;;4841595;29;20688;-44
2023/10/06 10:04:29;;;;;;;2.40;1.60;;;;;;;;;;4856183;29;20211;-44
2023/10/06 10:06:56;;;;;;;4.35;1.95;;;;;;;;;;4842544;29;20268;-44
2023/10/06 10:09:24;;;;;;;3.13;1.15;;;;;;;;;;4841167;29;20222;-44
2023/10/06 10:12:29;;;;;;;2.60;1.80;;;;;;;;;;4842645;29;20218;-44
2023/10/06 10:15:12;;;;;;;3.03;1.52;;;;;;;;;;4842445;29;20211;-44
2023/10/06 10:18:05;;;;;;;3.72;1.42;;;;;;;;;;4855746;29;20242;-43
2023/10/06 10:20:32;;;;;;;2.33;1.35;;;;;;;;;;4842624;29;20252;-47
2023/10/06 10:23:03;;;;;;;1.70;1.20;;;;;;;;;;4841386;29;20207;-43
2023/10/06 10:25:30;;;;;;;3.53;1.48;;;;;;;;;;4842266;29;20749;-44
2023/10/06 10:28:16;;;;;;;3.25;1.10;;;;;;;;;;4842250;29;20219;-43
2023/10/06 10:30:49;;;;;;;3.25;1.30;;;;;;;;;;4871428;29;20297;-43
2023/10/06 10:33:21;;;;;;;2.65;1.30;;;;;;;;;;4842238;29;20218;-44
2023/10/06 10:36:14;;;;;;;4.07;1.10;;;;;;;;;;4842185;29;20207;-44
2023/10/06 10:38:42;;;;;;;1.73;0.98;;;;;;;;;;4842385;29;20238;-44
2023/10/06 10:41:10;;;;;;;2.00;1.00;;;;;;;;;;4842381;29;20211;-44
2023/10/06 10:43:40;;;;;;;2.63;1.00;;;;;;;;;;4842197;29;20223;-43
2023/10/06 10:46:12;;;;;;;2.65;0.85;;;;;;;;;;4841863;29;20215;-46
2023/10/06 10:48:50;;;;;;;7.43;1.08;;;;;;;;;;4843471;29;20215;-44
2023/10/06 10:51:21;;;;;;;1.40;1.05;;;;;;;;;;4845346;29;20219;-43
2023/10/06 10:53:51;;;;;;;2.45;1.08;;;;;;;;;;4845272;29;20246;-44
2023/10/06 10:56:18;;;;;;;2.65;1.20;;;;;;;;;;4859404;29;20211;-44
2023/10/06 10:58:46;;;;;;;1.77;0.90;;;;;;;;;;4845374;29;20238;-43
2023/10/06 11:01:33;;;;;;;6.28;0.98;;;;;;;;;;4845211;29;20286;-44
2023/10/06 11:04:09;;;;;;;0.80;0.80;;;;;;;;;;4845157;29;20215;-44
2023/10/06 11:06:40;;;;;;;3.78;0.85;;;;;;;;;;4845144;29;20207;-44
2023/10/06 11:12:16;;;;;;;3.47;1.00;;;;;;;;;;4861331;29;20744;-43
2023/10/06 11:14:52;;;;;;;2.30;1.00;;;;;;;;;;4861466;29;20238;-44
2023/10/06 11:17:24;;;;;;;2.50;1.00;;;;;;;;;;4861230;29;20231;-44
2023/10/06 11:20:13;;;;;;;4.93;0.95;;;;;;;;;;4861426;29;20206;-45
2023/10/06 11:22:54;;;;;;;2.80;1.13;;;;;;;;;;4861587;29;20207;-43
2023/10/06 11:25:28;;;;;;;2.00;1.10;;;;;;;;;;4861240;29;20214;-44
2023/10/06 11:27:56;;;;;;;1.85;1.10;;;;;;;;;;4846792;29;20211;-45
2023/10/06 11:30:26;;;;;;;2.38;0.98;;;;;;;;;;4861067;29;20211;-44
2023/10/06 11:32:57;;;;;;;1.13;0.68;;;;;;;;;;4861369;29;20218;-46
2023/10/06 11:35:25;;;;;;;2.60;0.70;;;;;;;;;;4861135;29;20214;-44
2023/10/06 11:37:52;;;;;;;1.85;0.80;;;;;;;;;;4860931;29;20309;-43
2023/10/06 11:40:22;;;;;;;1.52;0.95;;;;;;;;;;4860848;29;20574;-43
2023/10/06 11:42:49;;;;;;;3.47;0.98;;;;;;;;;;4845944;29;20210;-43
2023/10/06 11:45:24;;;;;;;2.00;1.00;;;;;;;;;;4860735;29;20217;-44
2023/10/06 11:47:53;;;;;;;2.67;1.10;;;;;;;;;;4852565;29;20219;-44
2023/10/06 11:50:25;;;;;;;3.03;1.00;;;;;;;;;;4844429;29;20211;-43
2023/10/06 11:52:52;;;;;;;2.35;1.10;;;;;;;;;;4844323;29;20566;-44
2023/10/06 11:55:31;;;;;;;2.13;1.00;;;;;;;;;;4844114;29;20725;-44
2023/10/06 11:58:00;;;;;;;1.55;0.82;;;;;;;;;;4844360;29;20259;-44
2023/10/06 12:00:36;;;;;;;3.30;1.02;;;;;;;;;;4843846;29;20208;-44
2023/10/06 12:03:06;;;;;;;4.07;1.15;;;;;;;;;;4844249;29;20255;-45
2023/10/06 12:05:33;;;;;;;4.28;0.80;;;;;;;;;;4843857;29;20652;-43
2023/10/06 12:08:05;;;;;;;1.83;0.85;;;;;;;;;;4844033;29;20234;-44
2023/10/06 12:10:32;;;;;;;3.13;0.88;;;;;;;;;;4844409;29;20207;-44
2023/10/06 12:12:59;;;;;;;5.32;1.00;;;;;;;;;;4858165;29;20207;-43
2023/10/06 12:15:29;;;;;;;1.65;1.13;;;;;;;;;;4843846;29;20216;-43
2023/10/06 12:17:57;;;;;;;2.80;1.00;;;;;;;;;;4844165;29;20231;-43
2023/10/06 12:20:24;;;;;;;4.90;1.33;;;;;;;;;;4843782;29;20240;-45
2023/10/06 12:22:53;;;;;;;4.05;1.25;;;;;;;;;;4843732;29;20208;-44
2023/10/06 12:25:23;;;;;;;1.58;0.98;;;;;;;;;;4843793;29;20223;-44
2023/10/06 12:27:50;;;;;;;3.38;1.15;;;;;;;;;;4843808;29;20239;-45
2023/10/06 12:30:19;;;;;;;2.22;1.20;;;;;;;;;;4842418;29;20218;-43
2023/10/06 12:32:46;;;;;;;4.68;1.52;;;;;;;;;;4843650;29;20215;-44
2023/10/06 12:35:18;;;;;;;3.65;1.63;;;;;;;;;;4843674;29;20692;-45
2023/10/06 12:37:47;;;;;;;3.67;1.20;;;;;;;;;;4843256;29;20310;-46
2023/10/06 12:40:15;;;;;;;3.08;1.02;;;;;;;;;;4844615;29;20222;-45
2023/10/06 12:42:43;;;;;;;2.20;1.23;;;;;;;;;;4838403;29;20235;-44
2023/10/06 12:45:17;;;;;;;3.85;1.33;;;;;;;;;;4842579;29;20314;-44
2023/10/06 12:47:49;;;;;;;4.22;1.23;;;;;;;;;;4842351;29;20245;-43
2023/10/06 12:50:18;;;;;;;3.30;1.17;;;;;;;;;;4842724;29;20248;-45
2023/10/06 12:52:55;;;;;;;3.13;1.30;;;;;;;;;;4842225;29;20279;-44
2023/10/06 12:55:24;;;;;;;2.65;1.20;;;;;;;;;;4842199;29;20259;-45
2023/10/06 12:57:53;;;;;;;6.30;1.33;;;;;;;;;;4846955;29;20763;-45
2023/10/06 13:00:20;;;;;;;6.45;1.45;;;;;;;;;;4842804;29;20239;-43
2023/10/06 13:02:48;;;;;;;2.70;1.23;;;;;;;;;;4857654;29;20250;-44
2023/10/06 13:05:18;;;;;;;6.18;1.25;;;;;;;;;;4851632;29;20316;-43
2023/10/06 13:07:47;;;;;;;3.25;1.10;;;;;;;;;;4850598;29;20620;-44
2023/10/06 13:10:16;;;;;;;3.83;1.33;;;;;;;;;;4848789;29;20215;-43
2023/10/06 13:12:44;;;;;;;3.55;1.60;;;;;;;;;;4846848;29;20235;-43
2023/10/06 13:15:18;;;;;;;2.70;1.30;;;;;;;;;;4842369;29;20239;-44
2023/10/06 13:17:48;;;;;;;8.75;1.60;;;;;;;;;;4841976;29;20277;-44
2023/10/06 13:20:16;;;;;;;6.28;1.83;;;;;;;;;;4842281;29;20315;-45
2023/10/06 13:22:44;;;;;;;4.90;1.70;;;;;;;;;;4841932;29;20227;-44
2023/10/06 13:25:12;;;;;;;5.07;1.90;;;;;;;;;;4841654;29;20227;-44
2023/10/06 13:27:41;;;;;;;5.45;1.80;;;;;;;;;;4858038;29;20266;-44
2023/10/06 13:30:19;;;;;;;4.60;1.65;;;;;;;;;;4860852;29;20238;-43
2023/10/06 13:32:51;;;;;;;6.63;1.90;;;;;;;;;;4860214;29;20275;-47
2023/10/06 13:35:19;;;;;;;6.60;1.67;;;;;;;;;;4860772;29;20227;-44
2023/10/06 13:37:47;;;;;;;6.50;1.85;;;;;;;;;;4860112;29;20227;-44
2023/10/06 13:40:16;;;;;;;4.80;1.73;;;;;;;;;;4860335;29;20234;-46
2023/10/06 13:42:47;;;;;;;3.38;1.67;;;;;;;;;;4845406;29;20222;-44
2023/10/06 13:45:23;;;;;;;3.72;1.95;;;;;;;;;;4839841;29;20810;-46
2023/10/06 13:48:00;;;;;;;6.45;2.00;;;;;;;;;;4840310;29;20325;-44
2023/10/06 13:50:33;;;;;;;5.15;1.92;;;;;;;;;;4840499;29;20233;-49
2023/10/06 13:53:00;;;;;;;5.32;1.60;;;;;;;;;;4837367;29;20227;-43
2023/10/06 13:55:29;;;;;;;6.97;1.70;;;;;;;;;;4840845;29;20243;-44
2023/10/06 13:58:01;;;;;;;3.50;1.30;;;;;;;;;;4840537;29;20251;-46
2023/10/06 14:00:29;;;;;;;2.90;1.40;;;;;;;;;;4846418;29;20242;-46
2023/10/06 14:02:59;;;;;;;3.05;1.42;;;;;;;;;;4841323;29;20227;-46
2023/10/06 14:05:33;;;;;;;3.42;1.42;;;;;;;;;;4847302;29;20230;-45
2023/10/06 14:08:03;;;;;;;5.40;1.58;;;;;;;;;;4841446;29;20693;-46
2023/10/06 14:10:32;;;;;;;3.38;1.50;;;;;;;;;;4847562;29;20638;-44
2023/10/06 14:13:23;;;;;;;6.70;1.45;;;;;;;;;;4859702;29;20707;-44
2023/10/06 14:18:24;;;;;;;3.22;1.23;;;;;;;;;;4840264;29;20546;-50
2023/10/06 14:20:56;;;;;;;8.50;1.60;;;;;;;;;;4840126;29;20227;-44
2023/10/06 14:23:28;;;;;;;2.33;1.40;;;;;;;;;;4843653;29;20250;-44
2023/10/06 14:25:58;;;;;;;3.72;1.38;;;;;;;;;;4845203;29;20235;-47
2023/10/06 14:28:27;;;;;;;4.53;1.52;;;;;;;;;;4844963;29;20500;-44
2023/10/06 14:31:05;;;;;;;6.18;1.83;;;;;;;;;;4844962;29;20246;-45
2023/10/06 14:33:39;;;;;;;8.73;2.25;;;;;;;;;;4845333;29;20200;-44
2023/10/06 14:46:50;;;;;;;3.60;1.67;;;;;;;;;;4845984;29;20215;-44
2023/10/06 14:49:25;;;;;;;3.42;1.83;;;;;;;;;;4845684;29;20246;-44
2023/10/06 14:51:57;;;;;;;5.47;1.90;;;;;;;;;;4845385;29;20259;-44
2023/10/06 14:54:31;;;;;;;4.47;1.83;;;;;;;;;;4845093;29;20240;-45
2023/10/06 14:57:00;;;;;;;15.63;2.67;;;;;;;;;;4845234;29;20673;-44
2023/10/06 14:59:31;;;;;;;9.18;1.83;;;;;;;;;;4844673;29;20231;-44
2023/10/06 15:02:06;;;;;;;28.90;7.05;;;;;;;;;;4844832;29;20219;-44
2023/10/06 15:04:35;;;;;;;6.40;2.00;;;;;;;;;;4845127;29;20259;-44
2023/10/06 15:07:02;;;;;;;9.05;1.88;;;;;;;;;;4845217;29;20222;-44
2023/10/06 15:09:32;;;;;;;7.07;1.95;;;;;;;;;;4844549;29;20219;-44
2023/10/06 15:12:04;;;;;;;6.80;2.05;;;;;;;;;;4844790;29;20224;-44
2023/10/06 15:14:33;;;;;;;6.53;1.63;;;;;;;;;;4844941;29;20203;-44
2023/10/06 15:17:03;;;;;;;6.88;2.10;;;;;;;;;;4844576;29;20272;-44
2023/10/06 15:19:35;;;;;;;10.75;3.13;;;;;;;;;;4844792;29;20239;-44
2023/10/06 15:22:03;;;;;;;7.82;2.70;;;;;;;;;;4844838;29;20645;-45
2023/10/06 15:24:30;;;;;;;5.95;2.20;;;;;;;;;;4845150;29;20575;-46
2023/10/06 15:26:57;;;;;;;5.90;1.98;;;;;;;;;;4844921;29;20212;-44
2023/10/06 15:29:27;;;;;;;4.03;1.95;;;;;;;;;;4844853;29;20647;-44
2023/10/06 15:31:55;;;;;;;10.80;2.97;;;;;;;;;;4844804;29;20219;-44